Tankerton, United Kingdom
Current Conditions -  °F | °C
As of 8:50 AM on Friday 31 Oct 2014 (Local Time) from EGMC Reporting Station
Clear Clear  
Wind Chill: 16°   Ceiling: Unl
Heat Index: 16°   Visibility: 6mi
Dew Point: 13°   Wind: 6mph
Humidity: 82%   Direction: 190°S
Pressure: 30.06"   Gusts: NA
Location:  51.36°N, 1.05°E
Report Text: EGMC 310850Z 19005KT CAVOK 16/13 Q1018
Loading
Personal Weather Stations






























Interactive Weather Map
Tropical Storm Tracking
New forecast layout! Learn more

10-Day Weather Forecast

Advertisements
Track Severe Weather on mobile